createdAt,value
2019-05-14T00:00:26.107Z,99.90
2019-05-14T00:02:54.497Z,99.90
2019-05-14T00:05:22.879Z,99.90
2019-05-14T00:07:52.155Z,99.90
2019-05-14T00:10:21.836Z,99.90
2019-05-14T00:12:51.261Z,99.90
2019-05-14T00:15:21.661Z,99.90
2019-05-14T00:17:52.048Z,99.90
2019-05-14T00:20:22.388Z,99.90
2019-05-14T00:22:52.209Z,99.90
2019-05-14T00:25:22.057Z,99.90
2019-05-14T00:27:51.943Z,99.90
2019-05-14T00:30:22.078Z,99.90
2019-05-14T00:32:52.030Z,99.90
2019-05-14T00:35:21.623Z,99.90
2019-05-14T00:37:52.079Z,99.90
2019-05-14T00:40:22.078Z,99.90
2019-05-14T00:42:53.091Z,99.90
2019-05-14T00:45:21.838Z,99.90
2019-05-14T00:47:52.496Z,99.90
2019-05-14T00:50:21.648Z,99.90
2019-05-14T00:52:51.664Z,99.90
2019-05-14T00:55:22.371Z,99.90
2019-05-14T00:57:52.170Z,99.90
2019-05-14T01:00:22.214Z,99.90
2019-05-14T01:02:51.751Z,99.90
2019-05-14T01:05:21.512Z,99.90
2019-05-14T01:07:51.372Z,99.90
2019-05-14T01:10:22.138Z,99.90
2019-05-14T01:12:52.080Z,99.90
2019-05-14T01:15:21.722Z,99.90
2019-05-14T01:17:51.642Z,99.90
2019-05-14T01:20:21.348Z,99.90
2019-05-14T01:22:51.625Z,99.90
2019-05-14T01:25:23.280Z,99.90
2019-05-14T01:27:51.858Z,99.90
2019-05-14T01:30:21.437Z,99.90
2019-05-14T01:32:51.149Z,99.90
2019-05-14T01:35:22.162Z,99.90
2019-05-14T01:37:52.225Z,99.90
2019-05-14T01:40:21.855Z,99.90
2019-05-14T01:42:52.251Z,99.90
2019-05-14T01:45:27.674Z,99.90
2019-05-14T01:47:52.092Z,99.90
2019-05-14T01:50:21.630Z,99.90
2019-05-14T01:52:51.988Z,99.90
2019-05-14T01:55:21.953Z,99.90
2019-05-14T01:57:51.827Z,99.90
2019-05-14T02:00:22.353Z,99.90
2019-05-14T02:02:52.494Z,99.90
2019-05-14T02:05:21.751Z,99.90
2019-05-14T02:07:52.601Z,99.90
2019-05-14T02:10:22.367Z,99.90
2019-05-14T02:12:51.526Z,99.90
2019-05-14T02:15:25.382Z,99.90
2019-05-14T02:17:51.955Z,99.90
2019-05-14T02:20:21.534Z,99.90
2019-05-14T02:22:52.468Z,99.90
2019-05-14T02:25:21.627Z,99.90
2019-05-14T02:27:51.969Z,99.90
2019-05-14T02:30:32.053Z,99.90
2019-05-14T02:32:50.841Z,99.90
2019-05-14T02:35:20.202Z,99.90
2019-05-14T02:37:50.417Z,99.90
2019-05-14T02:40:20.468Z,99.90
2019-05-14T02:42:49.928Z,99.90
2019-05-14T02:45:19.978Z,99.90
2019-05-14T02:47:50.324Z,99.90
2019-05-14T02:50:20.273Z,99.90
2019-05-14T02:52:49.743Z,99.90
2019-05-14T02:55:19.559Z,99.90
2019-05-14T02:57:50.056Z,99.90
2019-05-14T03:00:19.831Z,99.90
2019-05-14T03:02:49.380Z,99.90
2019-05-14T03:05:19.244Z,99.90
2019-05-14T03:07:49.972Z,99.90
2019-05-14T03:10:19.365Z,99.90
2019-05-14T03:12:49.990Z,99.90
2019-05-14T03:15:20.043Z,99.90
2019-05-14T03:17:49.380Z,99.90
2019-05-14T03:20:19.686Z,99.90
2019-05-14T03:23:01.789Z,99.90
2019-05-14T03:25:19.470Z,99.90
2019-05-14T03:27:49.616Z,99.90
2019-05-14T03:30:22.808Z,99.90
2019-05-14T03:32:52.640Z,99.90
2019-05-14T03:35:24.262Z,99.90
2019-05-14T03:37:49.951Z,99.90
2019-05-14T03:40:19.561Z,99.90
2019-05-14T03:42:49.160Z,99.90
2019-05-14T03:45:19.624Z,99.90
2019-05-14T03:47:50.442Z,99.90
2019-05-14T03:50:19.443Z,99.90
2019-05-14T03:52:49.880Z,99.90
2019-05-14T03:55:20.273Z,99.90
2019-05-14T03:57:50.054Z,99.90
2019-05-14T04:00:21.318Z,99.90
2019-05-14T04:02:49.723Z,99.90
2019-05-14T04:05:19.819Z,99.90
2019-05-14T04:07:50.281Z,99.90
2019-05-14T04:10:19.620Z,99.90
2019-05-14T04:12:49.918Z,99.90
2019-05-14T04:15:19.863Z,99.90
2019-05-14T04:17:50.389Z,99.90
2019-05-14T04:20:19.826Z,99.90
2019-05-14T04:22:51.591Z,99.90
2019-05-14T04:25:19.987Z,99.90
2019-05-14T04:27:51.476Z,99.90
2019-05-14T04:30:23.949Z,99.90
2019-05-14T04:32:51.825Z,99.90
2019-05-14T04:35:21.789Z,99.90
2019-05-14T04:37:51.831Z,99.90
2019-05-14T04:40:20.212Z,99.90
2019-05-14T04:42:50.366Z,99.90
2019-05-14T04:45:19.734Z,99.90
2019-05-14T04:47:49.895Z,99.90
2019-05-14T04:50:20.128Z,99.90
2019-05-14T04:52:49.798Z,99.90
2019-05-14T04:55:20.378Z,99.90
2019-05-14T04:57:50.318Z,99.90
2019-05-14T05:00:19.978Z,99.90
2019-05-14T05:02:49.944Z,99.90
2019-05-14T05:05:19.774Z,99.90
2019-05-14T05:07:49.336Z,99.90
2019-05-14T05:10:19.325Z,99.90
2019-05-14T05:12:49.296Z,99.90
2019-05-14T05:15:19.817Z,99.90
2019-05-14T05:17:52.675Z,99.90
2019-05-14T05:20:19.327Z,99.90
2019-05-14T05:22:48.688Z,99.30
2019-05-14T05:25:18.878Z,98.50
2019-05-14T05:27:48.684Z,97.10
2019-05-14T05:30:19.004Z,95.90
2019-05-14T05:32:49.434Z,94.60
2019-05-14T05:35:18.775Z,91.60
2019-05-14T05:37:49.018Z,91.70
2019-05-14T05:40:19.689Z,91.80
2019-05-14T05:42:49.536Z,92.40
2019-05-14T05:45:18.640Z,90.50
2019-05-14T05:47:57.141Z,90.80
2019-05-14T05:50:19.317Z,91.50
2019-05-14T05:52:49.831Z,91.70
2019-05-14T05:55:19.170Z,92.20
2019-05-14T05:57:49.220Z,91.80
2019-05-14T06:00:40.281Z,89.80
2019-05-14T06:03:10.911Z,89.80
2019-05-14T06:05:39.982Z,85.10
2019-05-14T06:08:08.718Z,88.70
2019-05-14T06:10:39.940Z,86.70
2019-05-14T06:13:08.889Z,87.00
2019-05-14T06:15:45.583Z,84.90
2019-05-14T06:18:15.104Z,83.60
2019-05-14T06:20:38.860Z,81.10
2019-05-14T06:23:08.442Z,82.50
2019-05-14T06:25:39.985Z,83.90
2019-05-14T06:28:08.654Z,81.90
2019-05-14T06:30:40.838Z,81.30
2019-05-14T06:33:09.421Z,78.80
2019-05-14T06:35:39.692Z,78.10
2019-05-14T06:38:08.963Z,78.70
2019-05-14T06:40:39.582Z,78.80
2019-05-14T06:43:09.155Z,79.40
2019-05-14T06:45:39.075Z,82.20
2019-05-14T06:48:08.780Z,83.10
2019-05-14T06:50:39.186Z,83.80
2019-05-14T06:53:08.531Z,85.30
2019-05-14T06:55:39.339Z,83.90
2019-05-14T06:58:09.214Z,84.40
2019-05-14T07:00:39.392Z,80.70
2019-05-14T07:03:08.937Z,82.50
2019-05-14T07:05:39.034Z,80.50
2019-05-14T07:08:08.989Z,82.20
2019-05-14T07:10:39.532Z,81.40
2019-05-14T07:13:08.673Z,81.90
2019-05-14T07:15:38.671Z,84.90
2019-05-14T07:18:08.635Z,88.20
2019-05-14T07:20:39.109Z,91.30
2019-05-14T07:23:08.321Z,92.00
2019-05-14T07:25:39.387Z,94.00
2019-05-14T07:28:08.826Z,95.50
2019-05-14T07:30:39.633Z,97.20
2019-05-14T07:33:09.498Z,98.90
2019-05-14T07:35:38.311Z,99.90
2019-05-14T07:38:08.977Z,99.90
2019-05-14T07:40:38.801Z,99.90
2019-05-14T07:43:09.087Z,99.90
2019-05-14T07:45:38.652Z,99.90
2019-05-14T07:48:09.127Z,99.90
2019-05-14T07:50:39.703Z,99.90
2019-05-14T07:53:09.031Z,99.90
2019-05-14T07:55:38.585Z,99.90
2019-05-14T07:58:08.348Z,99.90
2019-05-14T08:00:39.963Z,99.90
2019-05-14T08:03:08.197Z,99.90
2019-05-14T08:05:38.931Z,99.90
2019-05-14T08:08:08.016Z,99.90
2019-05-14T08:10:39.047Z,99.90
2019-05-14T08:13:08.477Z,99.90
2019-05-14T08:15:38.668Z,99.90
2019-05-14T08:18:08.079Z,99.90
2019-05-14T08:20:37.993Z,99.90
2019-05-14T08:23:09.063Z,99.90
2019-05-14T08:25:39.004Z,99.90
2019-05-14T08:28:08.116Z,99.90
2019-05-14T08:30:38.900Z,99.90
2019-05-14T08:33:08.898Z,99.90
2019-05-14T08:35:39.492Z,99.90
2019-05-14T08:38:11.375Z,98.10
2019-05-14T08:40:38.222Z,96.70
2019-05-14T08:43:08.684Z,95.00
2019-05-14T08:45:38.906Z,93.40
2019-05-14T08:48:09.224Z,91.00
2019-05-14T08:50:38.758Z,89.60
2019-05-14T08:53:09.039Z,88.20
2019-05-14T08:55:38.302Z,80.60
2019-05-14T08:58:13.403Z,75.20
2019-05-14T09:00:38.764Z,73.80
2019-05-14T09:03:08.457Z,74.80
2019-05-14T09:05:38.665Z,71.20
2019-05-14T09:08:08.874Z,72.60
2019-05-14T09:10:39.981Z,69.70
2019-05-14T09:13:08.643Z,67.20
2019-05-14T09:15:38.485Z,61.60
2019-05-14T09:18:11.563Z,59.40
2019-05-14T09:20:38.208Z,57.00
2019-05-14T09:23:09.117Z,54.80
2019-05-14T09:25:45.343Z,51.80
2019-05-14T09:28:09.049Z,52.00
2019-05-14T09:30:38.240Z,54.20
2019-05-14T09:33:08.604Z,58.20
2019-05-14T09:35:38.673Z,57.80
2019-05-14T09:38:08.712Z,57.70
2019-05-14T09:40:39.674Z,56.70
2019-05-14T09:43:09.219Z,55.00
2019-05-14T09:45:38.779Z,55.90
2019-05-14T09:48:08.822Z,54.70
2019-05-14T09:50:38.488Z,53.10
2019-05-14T09:53:09.770Z,54.10
2019-05-14T09:55:38.853Z,51.00
2019-05-14T09:58:08.303Z,51.00
2019-05-14T10:00:39.076Z,47.80
2019-05-14T10:03:09.608Z,46.70
2019-05-14T10:05:37.769Z,47.10
2019-05-14T10:08:08.802Z,46.70
2019-05-14T10:10:36.297Z,45.60
2019-05-14T10:13:04.703Z,46.40
2019-05-14T10:15:33.089Z,44.40
2019-05-14T10:18:01.636Z,45.30
2019-05-14T10:20:40.557Z,47.20
2019-05-14T10:23:23.811Z,46.50
2019-05-14T10:25:52.209Z,45.80
2019-05-14T10:28:20.596Z,46.00
2019-05-14T10:30:49.178Z,46.00
2019-05-14T10:33:18.298Z,45.10
2019-05-14T10:35:48.412Z,45.90
2019-05-14T10:38:18.943Z,45.30
2019-05-14T10:40:46.961Z,45.00
2019-05-14T10:43:15.358Z,46.10
2019-05-14T10:45:43.742Z,43.60
2019-05-14T10:48:12.161Z,44.80
2019-05-14T10:50:55.766Z,42.50
2019-05-14T10:53:10.687Z,43.30
2019-05-14T10:55:39.078Z,45.90
2019-05-14T10:58:08.921Z,47.90
2019-05-14T11:00:41.468Z,49.10
2019-05-14T11:03:07.908Z,46.20
2019-05-14T11:05:40.778Z,45.80
2019-05-14T11:08:06.499Z,45.20
2019-05-14T11:10:41.811Z,44.60
2019-05-14T11:13:08.943Z,45.30
2019-05-14T11:15:39.268Z,45.70
2019-05-14T11:18:08.653Z,46.60
2019-05-14T11:20:41.725Z,48.30
2019-05-14T11:23:08.969Z,47.80
2019-05-14T11:25:38.338Z,47.00
2019-05-14T11:28:07.394Z,46.80
2019-05-14T11:30:35.789Z,45.60
2019-05-14T11:33:04.210Z,44.60
2019-05-14T11:35:32.605Z,45.30
2019-05-14T11:38:01.033Z,48.40
2019-05-14T11:40:29.542Z,47.20
2019-05-14T11:42:59.256Z,46.60
2019-05-14T11:45:28.085Z,46.40
2019-05-14T11:47:58.343Z,40.00
2019-05-14T11:50:28.642Z,42.50
2019-05-14T11:52:58.529Z,42.50
2019-05-14T11:55:27.146Z,42.80
2019-05-14T11:57:58.028Z,40.20
2019-05-14T12:00:26.848Z,40.60
2019-05-14T12:02:58.440Z,40.90
2019-05-14T12:05:26.393Z,40.40
2019-05-14T12:07:54.796Z,41.20
2019-05-14T12:10:23.208Z,42.60
2019-05-14T12:12:51.652Z,42.20
2019-05-14T12:15:20.064Z,42.50
2019-05-14T12:17:51.076Z,42.10
2019-05-14T12:20:18.822Z,37.80
2019-05-14T12:22:48.722Z,39.00
2019-05-14T12:25:18.929Z,39.20
2019-05-14T12:27:49.549Z,37.80
2019-05-14T12:30:19.738Z,39.90
2019-05-14T12:32:50.054Z,40.00
2019-05-14T12:35:19.785Z,37.10
2019-05-14T12:37:48.440Z,38.70
2019-05-14T12:40:38.221Z,38.30
2019-05-14T12:43:09.291Z,39.40
2019-05-14T12:45:39.098Z,38.80
2019-05-14T12:48:09.154Z,38.30
2019-05-14T12:50:39.168Z,38.60
2019-05-14T12:53:08.411Z,38.90
2019-05-14T12:55:39.811Z,39.20
2019-05-14T12:58:08.238Z,39.30
2019-05-14T13:00:38.898Z,38.70
2019-05-14T13:03:09.161Z,39.40
2019-05-14T13:05:45.847Z,37.80
2019-05-14T13:08:14.745Z,39.10
2019-05-14T13:10:43.329Z,40.10
2019-05-14T13:13:11.834Z,41.50
2019-05-14T13:15:40.387Z,40.10
2019-05-14T13:18:08.897Z,38.70
2019-05-14T13:20:38.935Z,39.60
2019-05-14T13:23:10.035Z,38.40
2019-05-14T13:25:40.775Z,41.50
2019-05-14T13:28:09.220Z,43.40
2019-05-14T13:30:37.609Z,41.90
2019-05-14T13:33:08.817Z,40.40
2019-05-14T13:35:40.156Z,39.20
2019-05-14T13:38:14.148Z,39.80
2019-05-14T13:40:39.366Z,39.30
2019-05-14T13:43:09.861Z,39.00
2019-05-14T13:45:39.134Z,38.80
2019-05-14T13:48:08.586Z,40.90
2019-05-14T13:50:39.988Z,40.20
2019-05-14T13:53:12.261Z,40.80
2019-05-14T13:55:44.211Z,39.80
2019-05-14T13:58:09.469Z,39.50
2019-05-14T14:00:39.375Z,37.90
2019-05-14T14:03:10.060Z,39.10
2019-05-14T14:05:39.234Z,37.30
2019-05-14T14:08:08.835Z,37.70
2019-05-14T14:10:45.013Z,36.60
2019-05-14T14:13:11.082Z,37.30
2019-05-14T14:15:38.441Z,38.90
2019-05-14T14:18:07.023Z,38.60
2019-05-14T14:20:35.490Z,38.00
2019-05-14T14:23:21.895Z,37.30
2019-05-14T14:25:43.927Z,37.40
2019-05-14T14:28:12.442Z,37.00
2019-05-14T14:30:41.028Z,37.80
2019-05-14T14:33:09.532Z,40.50
2019-05-14T14:35:38.814Z,38.90
2019-05-14T14:38:08.745Z,41.40
2019-05-14T14:40:39.545Z,41.20
2019-05-14T14:43:07.698Z,40.40
2019-05-14T14:45:46.114Z,39.00
2019-05-14T14:48:12.168Z,39.10
2019-05-14T14:50:39.988Z,40.70
2019-05-14T14:53:09.195Z,41.20
2019-05-14T14:55:40.054Z,41.60
2019-05-14T14:58:11.579Z,41.70
2019-05-14T15:00:38.237Z,43.40
2019-05-14T15:03:09.872Z,41.40
2019-05-14T15:05:38.988Z,42.20
2019-05-14T15:08:10.352Z,42.40
2019-05-14T15:10:39.492Z,42.50
2019-05-14T15:13:09.255Z,42.10
2019-05-14T15:15:39.398Z,42.70
2019-05-14T15:18:10.086Z,41.90
2019-05-14T15:20:37.719Z,41.20
2019-05-14T15:23:09.378Z,39.30
2019-05-14T15:25:36.261Z,41.80
2019-05-14T15:28:04.641Z,40.60
2019-05-14T15:30:33.097Z,39.40
2019-05-14T15:33:01.522Z,39.00
2019-05-14T15:35:29.905Z,40.20
2019-05-14T15:37:58.994Z,40.20
2019-05-14T15:40:28.979Z,40.00
2019-05-14T15:42:58.973Z,40.30
2019-05-14T15:45:28.770Z,39.80
2019-05-14T15:48:02.966Z,40.40
2019-05-14T15:50:29.186Z,41.60
2019-05-14T15:52:57.525Z,41.50
2019-05-14T15:55:25.917Z,42.40
2019-05-14T15:57:54.325Z,42.50
2019-05-14T16:00:22.817Z,42.10
2019-05-14T16:02:51.211Z,43.10
2019-05-14T16:05:19.617Z,43.30
2019-05-14T16:07:49.406Z,43.90
2019-05-14T16:10:21.706Z,44.40
2019-05-14T16:12:49.573Z,44.50
2019-05-14T16:15:18.874Z,44.80
2019-05-14T16:18:04.301Z,45.70
2019-05-14T16:20:18.914Z,45.50
2019-05-14T16:22:47.967Z,46.30
2019-05-14T16:25:16.491Z,46.10
2019-05-14T16:27:44.902Z,46.90
2019-05-14T16:30:14.121Z,47.40
2019-05-14T16:32:42.528Z,47.60
2019-05-14T16:35:11.065Z,49.50
2019-05-14T16:37:39.546Z,50.50
2019-05-14T16:40:10.930Z,50.50
2019-05-14T16:42:39.890Z,50.90
2019-05-14T16:45:09.866Z,52.00
2019-05-14T16:47:39.902Z,52.50
2019-05-14T16:50:10.289Z,52.30
2019-05-14T16:52:42.302Z,53.60
2019-05-14T16:55:23.097Z,55.00
2019-05-14T16:57:39.887Z,54.90
2019-05-14T17:00:11.151Z,54.70
2019-05-14T17:02:39.533Z,55.20
2019-05-14T17:05:09.195Z,54.60
2019-05-14T17:07:38.565Z,55.40
2019-05-14T17:10:08.704Z,55.50
2019-05-14T17:12:49.660Z,55.10
2019-05-14T17:15:09.724Z,55.50
2019-05-14T17:17:38.513Z,56.20
2019-05-14T17:20:08.823Z,57.00
2019-05-14T17:22:39.789Z,56.90
2019-05-14T17:25:09.421Z,57.50
2019-05-14T17:27:39.580Z,57.10
2019-05-14T17:30:09.642Z,57.20
2019-05-14T17:32:39.033Z,57.70
2019-05-14T17:35:29.751Z,57.20
2019-05-14T17:37:58.726Z,57.50
2019-05-14T17:40:27.788Z,57.00
2019-05-14T17:42:56.262Z,57.10
2019-05-14T17:45:28.264Z,58.70
2019-05-14T17:47:58.320Z,57.80
2019-05-14T17:50:25.882Z,57.60
2019-05-14T17:52:56.390Z,57.40
2019-05-14T17:55:24.483Z,57.80
2019-05-14T17:57:58.480Z,58.10
2019-05-14T18:00:23.103Z,57.80
2019-05-14T18:02:51.498Z,57.90
2019-05-14T18:05:19.898Z,57.50
2019-05-14T18:07:48.435Z,58.40
2019-05-14T18:10:19.515Z,58.90
2019-05-14T18:12:48.159Z,58.90
2019-05-14T18:15:16.976Z,58.30
2019-05-14T18:17:45.381Z,59.00
2019-05-14T18:20:14.609Z,58.80
2019-05-14T18:22:44.593Z,58.80
2019-05-14T18:25:13.057Z,59.20
2019-05-14T18:27:41.454Z,59.10
2019-05-14T18:30:10.197Z,58.80
2019-05-14T18:32:38.605Z,59.00
2019-05-14T18:35:08.525Z,59.00
2019-05-14T18:37:38.871Z,59.50
2019-05-14T18:40:09.226Z,60.00
2019-05-14T18:42:39.107Z,59.50
2019-05-14T18:45:09.099Z,59.60
2019-05-14T18:47:39.765Z,59.80
2019-05-14T18:50:09.667Z,60.50
2019-05-14T18:52:39.940Z,60.40
2019-05-14T18:55:09.232Z,60.70
2019-05-14T18:57:38.208Z,60.90
2019-05-14T19:00:18.430Z,61.50
2019-05-14T19:02:42.042Z,61.80
2019-05-14T19:05:12.855Z,62.40
2019-05-14T19:07:41.249Z,62.80
2019-05-14T19:10:10.470Z,63.60
2019-05-14T19:12:39.122Z,64.60
2019-05-14T19:15:09.330Z,64.10
2019-05-14T19:17:38.626Z,65.20
2019-05-14T19:20:09.411Z,65.90
2019-05-14T19:22:39.662Z,66.40
2019-05-14T19:25:08.449Z,67.30
2019-05-14T19:27:38.010Z,68.00
2019-05-14T19:30:08.446Z,68.50
2019-05-14T19:32:39.196Z,68.90
2019-05-14T19:35:08.835Z,69.40
2019-05-14T19:37:39.267Z,69.80
2019-05-14T19:40:09.196Z,70.10
2019-05-14T19:42:39.653Z,70.20
2019-05-14T19:45:09.028Z,71.00
2019-05-14T19:47:40.048Z,71.30
2019-05-14T19:50:09.046Z,71.30
2019-05-14T19:52:39.049Z,71.90
2019-05-14T19:55:09.113Z,72.20
2019-05-14T19:57:38.346Z,72.70
2019-05-14T20:00:09.618Z,73.90
2019-05-14T20:02:38.087Z,74.30
2019-05-14T20:05:08.995Z,74.80
2019-05-14T20:07:38.687Z,75.80
2019-05-14T20:10:09.301Z,76.20
2019-05-14T20:12:39.242Z,77.40
2019-05-14T20:15:09.387Z,78.10
2019-05-14T20:17:38.378Z,79.30
2019-05-14T20:20:09.221Z,80.50
2019-05-14T20:22:39.249Z,81.20
2019-05-14T20:25:10.234Z,82.80
2019-05-14T20:27:39.226Z,83.50
2019-05-14T20:30:12.673Z,84.20
2019-05-14T20:32:44.168Z,86.50
2019-05-14T20:35:27.499Z,88.80
2019-05-14T20:37:43.324Z,90.20
2019-05-14T20:40:13.340Z,90.80
2019-05-14T20:42:41.759Z,91.90
2019-05-14T20:45:11.160Z,92.30
2019-05-14T20:47:39.529Z,93.00
2019-05-14T20:50:09.227Z,94.00
2019-05-14T20:52:37.795Z,94.30
2019-05-14T20:55:09.599Z,94.90
2019-05-14T20:57:38.534Z,95.50
2019-05-14T21:00:11.602Z,95.80
2019-05-14T21:02:40.189Z,96.20
2019-05-14T21:05:13.549Z,97.10
2019-05-14T21:07:40.335Z,96.90
2019-05-14T21:10:09.753Z,97.20
2019-05-14T21:12:39.355Z,97.50
2019-05-14T21:15:09.765Z,97.60
2019-05-14T21:17:39.629Z,97.90
2019-05-14T21:20:09.251Z,98.10
2019-05-14T21:22:40.016Z,98.50
2019-05-14T21:25:12.488Z,98.60
2019-05-14T21:27:48.018Z,98.70
2019-05-14T21:30:11.228Z,99.00
2019-05-14T21:32:42.678Z,98.90
2019-05-14T21:35:09.921Z,99.30
2019-05-14T21:37:39.310Z,99.50
2019-05-14T21:40:09.539Z,99.60
2019-05-14T21:42:38.637Z,99.70
2019-05-14T21:45:09.763Z,99.90
2019-05-14T21:47:38.971Z,99.90
2019-05-14T21:50:09.577Z,99.90
2019-05-14T21:52:42.399Z,99.90
2019-05-14T21:55:09.842Z,99.90
2019-05-14T21:57:52.134Z,99.90
2019-05-14T22:00:18.639Z,99.90
2019-05-14T22:02:49.163Z,99.90
2019-05-14T22:05:18.943Z,99.90
2019-05-14T22:07:48.531Z,99.90
2019-05-14T22:10:19.071Z,99.90
2019-05-14T22:12:48.769Z,99.90
2019-05-14T22:15:18.378Z,99.90
2019-05-14T22:17:49.217Z,99.90
2019-05-14T22:20:19.206Z,99.90
2019-05-14T22:22:48.685Z,99.90
2019-05-14T22:25:19.046Z,99.90
2019-05-14T22:27:48.354Z,99.90
2019-05-14T22:30:18.400Z,99.90
2019-05-14T22:32:47.386Z,99.90
2019-05-14T22:35:15.858Z,99.90
2019-05-14T22:37:44.249Z,99.90
2019-05-14T22:40:13.465Z,99.90
2019-05-14T22:42:41.846Z,99.90
2019-05-14T22:45:10.319Z,99.90
2019-05-14T22:47:40.380Z,99.90
2019-05-14T22:50:09.695Z,99.90
2019-05-14T22:52:38.786Z,99.90
2019-05-14T22:55:07.913Z,99.90
2019-05-14T22:57:38.831Z,99.90
2019-05-14T23:00:09.462Z,99.90
2019-05-14T23:02:38.349Z,99.90
2019-05-14T23:05:08.803Z,99.90
2019-05-14T23:07:38.434Z,99.90
2019-05-14T23:10:09.168Z,99.90
2019-05-14T23:12:38.588Z,99.90
2019-05-14T23:15:09.254Z,99.90
2019-05-14T23:17:38.964Z,99.90
2019-05-14T23:20:09.219Z,99.90
2019-05-14T23:22:38.982Z,99.90
2019-05-14T23:25:08.955Z,99.90
2019-05-14T23:27:39.050Z,99.90
2019-05-14T23:30:09.217Z,99.90
2019-05-14T23:32:38.519Z,99.90
2019-05-14T23:35:08.485Z,99.90
2019-05-14T23:37:37.609Z,99.90
2019-05-14T23:40:08.559Z,99.90
2019-05-14T23:42:39.298Z,99.90
2019-05-14T23:45:08.213Z,99.90
2019-05-14T23:47:38.383Z,99.90
2019-05-14T23:50:08.312Z,99.90
2019-05-14T23:52:38.654Z,99.90
2019-05-14T23:55:08.625Z,99.90
2019-05-14T23:57:37.700Z,99.90
